sensor_id;sensor_type;location;lat;lon;timestamp;pressure;altitude;pressure_sealevel;temperature;humidity
68656;BME280;55638;51.122;13.606;2023-09-12T00:00:05;99758.81;;;15.36;53.28
68656;BME280;55638;51.122;13.606;2023-09-12T00:01:42;99766.25;;;15.34;53.24
68656;BME280;55638;51.122;13.606;2023-09-12T00:03:17;99764.56;;;15.33;53.13
68656;BME280;55638;51.122;13.606;2023-09-12T00:04:50;99756.06;;;15.27;53.26
68656;BME280;55638;51.122;13.606;2023-09-12T00:06:22;99760.66;;;15.27;53.64
68656;BME280;55638;51.122;13.606;2023-09-12T00:07:54;99769.13;;;15.24;53.61
68656;BME280;55638;51.122;13.606;2023-09-12T00:09:26;99762.03;;;15.23;53.90
68656;BME280;55638;51.122;13.606;2023-09-12T00:11:01;99767.78;;;15.20;53.98
68656;BME280;55638;51.122;13.606;2023-09-12T00:12:33;99764.38;;;15.18;53.87
68656;BME280;55638;51.122;13.606;2023-09-12T00:14:05;99764.56;;;15.16;53.76
68656;BME280;55638;51.122;13.606;2023-09-12T00:15:39;99767.44;;;15.15;53.96
68656;BME280;55638;51.122;13.606;2023-09-12T00:17:11;99764.06;;;15.13;54.07
68656;BME280;55638;51.122;13.606;2023-09-12T00:18:43;99771.50;;;15.11;54.30
68656;BME280;55638;51.122;13.606;2023-09-12T00:20:16;99774.41;;;15.09;54.27
68656;BME280;55638;51.122;13.606;2023-09-12T00:21:48;99768.47;;;15.05;54.48
68656;BME280;55638;51.122;13.606;2023-09-12T00:23:21;99770.31;;;15.05;54.24
68656;BME280;55638;51.122;13.606;2023-09-12T00:24:53;99773.38;;;15.02;54.36
68656;BME280;55638;51.122;13.606;2023-09-12T00:26:25;99774.38;;;15.01;54.33
68656;BME280;55638;51.122;13.606;2023-09-12T00:27:58;99764.69;;;14.98;54.15
68656;BME280;55638;51.122;13.606;2023-09-12T00:29:30;99769.47;;;14.96;54.46
68656;BME280;55638;51.122;13.606;2023-09-12T00:31:02;99775.88;;;14.95;54.76
68656;BME280;55638;51.122;13.606;2023-09-12T00:32:34;99768.63;;;14.96;54.54
68656;BME280;55638;51.122;13.606;2023-09-12T00:34:06;99773.53;;;14.92;54.88
68656;BME280;55638;51.122;13.606;2023-09-12T00:35:38;99761.97;;;14.90;54.93
68656;BME280;55638;51.122;13.606;2023-09-12T00:37:10;99758.44;;;14.90;54.92
68656;BME280;55638;51.122;13.606;2023-09-12T00:38:43;99764.84;;;14.89;55.11
68656;BME280;55638;51.122;13.606;2023-09-12T00:40:15;99758.56;;;14.88;54.99
68656;BME280;55638;51.122;13.606;2023-09-12T00:41:47;99755.19;;;14.86;55.00
68656;BME280;55638;51.122;13.606;2023-09-12T00:43:19;99756.19;;;14.85;55.23
68656;BME280;55638;51.122;13.606;2023-09-12T00:44:51;99763.50;;;14.84;55.19
68656;BME280;55638;51.122;13.606;2023-09-12T00:46:23;99761.09;;;14.81;55.55
68656;BME280;55638;51.122;13.606;2023-09-12T00:47:58;99761.94;;;14.82;55.76
68656;BME280;55638;51.122;13.606;2023-09-12T00:49:31;99755.69;;;14.81;55.48
68656;BME280;55638;51.122;13.606;2023-09-12T00:51:03;99758.56;;;14.80;55.52
68656;BME280;55638;51.122;13.606;2023-09-12T00:52:37;99757.72;;;14.79;55.56
68656;BME280;55638;51.122;13.606;2023-09-12T00:54:10;99760.59;;;14.78;55.68
68656;BME280;55638;51.122;13.606;2023-09-12T00:55:48;99758.91;;;14.77;56.55
68656;BME280;55638;51.122;13.606;2023-09-12T00:57:23;99761.63;;;14.77;55.95
68656;BME280;55638;51.122;13.606;2023-09-12T00:58:56;99763.50;;;14.76;55.86
68656;BME280;55638;51.122;13.606;2023-09-12T01:00:28;99760.94;;;14.75;55.95
68656;BME280;55638;51.122;13.606;2023-09-12T01:02:01;99754.84;;;14.73;55.94
68656;BME280;55638;51.122;13.606;2023-09-12T01:03:34;99758.38;;;14.73;56.16
68656;BME280;55638;51.122;13.606;2023-09-12T01:05:07;99758.53;;;14.72;55.89
68656;BME280;55638;51.122;13.606;2023-09-12T01:06:40;99757.69;;;14.71;55.97
68656;BME280;55638;51.122;13.606;2023-09-12T01:08:12;99764.28;;;14.69;56.26
68656;BME280;55638;51.122;13.606;2023-09-12T01:09:44;99761.59;;;14.69;56.18
68656;BME280;55638;51.122;13.606;2023-09-12T01:11:17;99754.47;;;14.68;56.31
68656;BME280;55638;51.122;13.606;2023-09-12T01:12:50;99760.91;;;14.67;56.34
68656;BME280;55638;51.122;13.606;2023-09-12T01:14:22;99761.91;;;14.66;56.16
68656;BME280;55638;51.122;13.606;2023-09-12T01:15:54;99758.53;;;14.64;56.14
68656;BME280;55638;51.122;13.606;2023-09-12T01:17:26;99762.22;;;14.62;56.52
68656;BME280;55638;51.122;13.606;2023-09-12T01:18:58;99760.53;;;14.61;56.31
68656;BME280;55638;51.122;13.606;2023-09-12T01:20:32;99760.69;;;14.60;56.72
68656;BME280;55638;51.122;13.606;2023-09-12T01:22:38;99758.47;;;14.55;57.03
68656;BME280;55638;51.122;13.606;2023-09-12T01:26:35;99764.22;;;14.52;57.57
68656;BME280;55638;51.122;13.606;2023-09-12T01:28:09;99758.78;;;14.52;56.90
68656;BME280;55638;51.122;13.606;2023-09-12T01:29:43;99764.41;;;14.51;56.67
68656;BME280;55638;51.122;13.606;2023-09-12T01:31:17;99766.25;;;14.50;56.69
68656;BME280;55638;51.122;13.606;2023-09-12T01:32:49;99767.44;;;14.48;56.55
68656;BME280;55638;51.122;13.606;2023-09-12T01:34:21;99771.31;;;14.45;56.62
68656;BME280;55638;51.122;13.606;2023-09-12T01:35:53;99769.63;;;14.44;56.54
68656;BME280;55638;51.122;13.606;2023-09-12T01:37:26;99766.22;;;14.42;56.43
68656;BME280;55638;51.122;13.606;2023-09-12T01:38:58;99769.94;;;14.41;56.62
68656;BME280;55638;51.122;13.606;2023-09-12T01:40:39;99762.97;;;14.38;57.55
68656;BME280;55638;51.122;13.606;2023-09-12T01:42:20;99771.13;;;14.38;57.38
68656;BME280;55638;51.122;13.606;2023-09-12T01:43:52;99763.16;;;14.37;56.91
68656;BME280;55638;51.122;13.606;2023-09-12T01:45:25;99766.03;;;14.35;56.79
68656;BME280;55638;51.122;13.606;2023-09-12T01:47:03;99761.75;;;14.33;57.43
68656;BME280;55638;51.122;13.606;2023-09-12T01:48:37;99766.19;;;14.34;57.03
68656;BME280;55638;51.122;13.606;2023-09-12T01:50:10;99762.78;;;14.32;56.97
68656;BME280;55638;51.122;13.606;2023-09-12T01:51:44;99769.25;;;14.31;57.01
68656;BME280;55638;51.122;13.606;2023-09-12T01:53:17;99769.38;;;14.29;56.81
68656;BME280;55638;51.122;13.606;2023-09-12T01:54:49;99774.81;;;14.29;57.26
68656;BME280;55638;51.122;13.606;2023-09-12T01:56:23;99766.84;;;14.28;57.30
68656;BME280;55638;51.122;13.606;2023-09-12T01:57:56;99767.00;;;14.26;57.13
68656;BME280;55638;51.122;13.606;2023-09-12T01:59:29;99769.88;;;14.25;57.16
68656;BME280;55638;51.122;13.606;2023-09-12T02:01:01;99767.16;;;14.25;57.25
68656;BME280;55638;51.122;13.606;2023-09-12T02:02:33;99767.31;;;14.23;57.21
68656;BME280;55638;51.122;13.606;2023-09-12T02:04:05;99778.34;;;14.22;57.17
68656;BME280;55638;51.122;13.606;2023-09-12T02:05:40;99770.34;;;14.20;57.10
68656;BME280;55638;51.122;13.606;2023-09-12T02:07:12;99778.66;;;14.19;57.33
68656;BME280;55638;51.122;13.606;2023-09-12T02:08:44;99771.53;;;14.18;57.20
68656;BME280;55638;51.122;13.606;2023-09-12T02:10:17;99770.84;;;14.15;57.11
68656;BME280;55638;51.122;13.606;2023-09-12T02:11:50;99778.97;;;14.15;57.48
68656;BME280;55638;51.122;13.606;2023-09-12T02:13:22;99771.16;;;14.12;57.37
68656;BME280;55638;51.122;13.606;2023-09-12T02:14:54;99767.75;;;14.10;57.33
68656;BME280;55638;51.122;13.606;2023-09-12T02:16:26;99762.50;;;14.09;57.65
68656;BME280;55638;51.122;13.606;2023-09-12T02:17:58;99768.97;;;14.08;57.35
68656;BME280;55638;51.122;13.606;2023-09-12T02:19:30;99766.38;;;14.06;57.32
68656;BME280;55638;51.122;13.606;2023-09-12T02:21:02;99763.84;;;14.05;57.67
68656;BME280;55638;51.122;13.606;2023-09-12T02:22:34;99764.00;;;14.03;57.66
68656;BME280;55638;51.122;13.606;2023-09-12T02:24:07;99763.34;;;14.01;57.92
68656;BME280;55638;51.122;13.606;2023-09-12T02:25:39;99757.03;;;14.01;58.00
68656;BME280;55638;51.122;13.606;2023-09-12T02:27:11;99762.63;;;13.99;57.96
68656;BME280;55638;51.122;13.606;2023-09-12T02:28:45;99764.50;;;13.99;58.20
68656;BME280;55638;51.122;13.606;2023-09-12T02:30:17;99761.94;;;13.97;57.90
68656;BME280;55638;51.122;13.606;2023-09-12T02:31:49;99765.66;;;13.96;58.09
68656;BME280;55638;51.122;13.606;2023-09-12T02:33:21;99768.50;;;13.95;58.08
68656;BME280;55638;51.122;13.606;2023-09-12T02:34:53;99765.97;;;13.93;58.02
68656;BME280;55638;51.122;13.606;2023-09-12T02:36:26;99768.69;;;13.93;58.23
68656;BME280;55638;51.122;13.606;2023-09-12T02:37:58;99768.69;;;13.93;58.08
68656;BME280;55638;51.122;13.606;2023-09-12T02:39:30;99768.88;;;13.91;58.24
68656;BME280;55638;51.122;13.606;2023-09-12T02:41:02;99772.75;;;13.89;58.15
68656;BME280;55638;51.122;13.606;2023-09-12T02:42:34;99776.28;;;13.89;58.15
68656;BME280;55638;51.122;13.606;2023-09-12T02:44:07;99777.31;;;13.88;58.09
68656;BME280;55638;51.122;13.606;2023-09-12T02:45:38;99776.59;;;13.86;58.15
68656;BME280;55638;51.122;13.606;2023-09-12T02:47:10;99777.63;;;13.85;58.12
68656;BME280;55638;51.122;13.606;2023-09-12T02:48:42;99775.91;;;13.84;58.13
68656;BME280;55638;51.122;13.606;2023-09-12T02:50:15;99776.09;;;13.83;58.23
68656;BME280;55638;51.122;13.606;2023-09-12T02:51:47;99778.09;;;13.81;58.40
68656;BME280;55638;51.122;13.606;2023-09-12T02:53:19;99779.09;;;13.80;58.18
68656;BME280;55638;51.122;13.606;2023-09-12T02:54:51;99779.25;;;13.78;58.22
68656;BME280;55638;51.122;13.606;2023-09-12T02:56:23;99782.13;;;13.77;58.41
68656;BME280;55638;51.122;13.606;2023-09-12T02:57:55;99776.88;;;13.75;58.37
68656;BME280;55638;51.122;13.606;2023-09-12T02:59:27;99782.44;;;13.74;58.45
68656;BME280;55638;51.122;13.606;2023-09-12T03:00:59;99778.06;;;13.73;58.36
68656;BME280;55638;51.122;13.606;2023-09-12T03:02:31;99776.28;;;13.72;58.55
68656;BME280;55638;51.122;13.606;2023-09-12T03:04:03;99778.16;;;13.71;58.42
68656;BME280;55638;51.122;13.606;2023-09-12T03:05:35;99781.03;;;13.69;58.41
68656;BME280;55638;51.122;13.606;2023-09-12T03:07:08;99772.22;;;13.67;58.40
68656;BME280;55638;51.122;13.606;2023-09-12T03:08:40;99774.06;;;13.67;58.59
68656;BME280;55638;51.122;13.606;2023-09-12T03:10:13;99768.84;;;13.65;58.40
68656;BME280;55638;51.122;13.606;2023-09-12T03:11:45;99770.84;;;13.63;58.40
68656;BME280;55638;51.122;13.606;2023-09-12T03:13:16;99773.53;;;13.63;58.50
68656;BME280;55638;51.122;13.606;2023-09-12T03:14:48;99773.69;;;13.62;58.56
68656;BME280;55638;51.122;13.606;2023-09-12T03:16:20;99766.59;;;13.61;58.54
68656;BME280;55638;51.122;13.606;2023-09-12T03:17:52;99769.47;;;13.59;58.49
68656;BME280;55638;51.122;13.606;2023-09-12T03:19:24;99769.59;;;13.58;58.51
68656;BME280;55638;51.122;13.606;2023-09-12T03:20:56;99767.91;;;13.57;58.57
68656;BME280;55638;51.122;13.606;2023-09-12T03:22:28;99767.06;;;13.56;58.56
68656;BME280;55638;51.122;13.606;2023-09-12T03:24:00;99768.06;;;13.55;58.68
68656;BME280;55638;51.122;13.606;2023-09-12T03:25:38;99761.97;;;13.53;59.08
68656;BME280;55638;51.122;13.606;2023-09-12T03:27:10;99757.53;;;13.52;58.56
68656;BME280;55638;51.122;13.606;2023-09-12T03:28:42;99763.28;;;13.49;58.66
68656;BME280;55638;51.122;13.606;2023-09-12T03:30:14;99755.19;;;13.49;58.81
68656;BME280;55638;51.122;13.606;2023-09-12T03:31:47;99758.88;;;13.48;58.79
68656;BME280;55638;51.122;13.606;2023-09-12T03:33:19;99749.06;;;13.47;58.90
68656;BME280;55638;51.122;13.606;2023-09-12T03:34:51;99755.50;;;13.46;58.80
68656;BME280;55638;51.122;13.606;2023-09-12T03:36:23;99754.78;;;13.44;59.04
68656;BME280;55638;51.122;13.606;2023-09-12T03:37:55;99754.09;;;13.42;58.95
68656;BME280;55638;51.122;13.606;2023-09-12T03:39:27;99748.66;;;13.42;59.17
68656;BME280;55638;51.122;13.606;2023-09-12T03:40:59;99747.81;;;13.41;59.17
68656;BME280;55638;51.122;13.606;2023-09-12T03:42:32;99755.09;;;13.41;59.48
68656;BME280;55638;51.122;13.606;2023-09-12T03:44:13;99754.09;;;13.42;59.17
68656;BME280;55638;51.122;13.606;2023-09-12T03:45:45;99745.97;;;13.42;59.33
68656;BME280;55638;51.122;13.606;2023-09-12T03:47:17;99754.09;;;13.42;59.46
68656;BME280;55638;51.122;13.606;2023-09-12T03:48:49;99755.94;;;13.41;59.79
68656;BME280;55638;51.122;13.606;2023-09-12T03:50:22;99754.78;;;13.44;59.88
68656;BME280;55638;51.122;13.606;2023-09-12T03:51:54;99754.78;;;13.44;59.63
68656;BME280;55638;51.122;13.606;2023-09-12T03:53:25;99752.91;;;13.44;59.68
68656;BME280;55638;51.122;13.606;2023-09-12T03:54:59;99758.19;;;13.46;59.87
68656;BME280;55638;51.122;13.606;2023-09-12T03:56:34;99764.47;;;13.47;59.69
68656;BME280;55638;51.122;13.606;2023-09-12T03:58:06;99757.19;;;13.47;59.56
68656;BME280;55638;51.122;13.606;2023-09-12T03:59:38;99759.88;;;13.47;59.70
68656;BME280;55638;51.122;13.606;2023-09-12T04:01:10;99763.44;;;13.48;59.68
68656;BME280;55638;51.122;13.606;2023-09-12T04:02:42;99774.13;;;13.49;59.71
68656;BME280;55638;51.122;13.606;2023-09-12T04:04:13;99769.56;;;13.50;59.60
68656;BME280;55638;51.122;13.606;2023-09-12T04:05:46;99768.72;;;13.49;59.89
68656;BME280;55638;51.122;13.606;2023-09-12T04:07:18;99773.13;;;13.50;59.91
68656;BME280;55638;51.122;13.606;2023-09-12T04:08:50;99773.97;;;13.51;59.91
68656;BME280;55638;51.122;13.606;2023-09-12T04:10:22;99768.38;;;13.52;60.05
68656;BME280;55638;51.122;13.606;2023-09-12T04:11:54;99761.97;;;13.53;59.88
68656;BME280;55638;51.122;13.606;2023-09-12T04:13:26;99764.69;;;13.53;59.86
68656;BME280;55638;51.122;13.606;2023-09-12T04:14:58;99763.66;;;13.54;59.92
68656;BME280;55638;51.122;13.606;2023-09-12T04:16:30;99768.06;;;13.55;60.04
68656;BME280;55638;51.122;13.606;2023-09-12T04:18:02;99776.03;;;13.57;59.96
68656;BME280;55638;51.122;13.606;2023-09-12T04:19:35;99769.47;;;13.59;60.12
68656;BME280;55638;51.122;13.606;2023-09-12T04:21:07;99771.16;;;13.60;60.26
68656;BME280;55638;51.122;13.606;2023-09-12T04:22:41;99767.44;;;13.61;60.22
68656;BME280;55638;51.122;13.606;2023-09-12T04:24:13;99770.00;;;13.63;60.26
68656;BME280;55638;51.122;13.606;2023-09-12T04:25:46;99768.84;;;13.65;60.48
68656;BME280;55638;51.122;13.606;2023-09-12T04:27:18;99770.53;;;13.66;60.25
68656;BME280;55638;51.122;13.606;2023-09-12T04:28:50;99772.06;;;13.69;60.11
68656;BME280;55638;51.122;13.606;2023-09-12T04:30:22;99768.16;;;13.72;60.05
68656;BME280;55638;51.122;13.606;2023-09-12T04:31:55;99768.06;;;13.73;60.04
68656;BME280;55638;51.122;13.606;2023-09-12T04:33:31;99761.63;;;13.74;60.08
68656;BME280;55638;51.122;13.606;2023-09-12T04:35:04;99762.47;;;13.75;59.92
68656;BME280;55638;51.122;13.606;2023-09-12T04:36:36;99758.91;;;13.74;60.04
68656;BME280;55638;51.122;13.606;2023-09-12T04:38:08;99761.47;;;13.76;59.98
68656;BME280;55638;51.122;13.606;2023-09-12T04:39:40;99756.06;;;13.76;59.85
68656;BME280;55638;51.122;13.606;2023-09-12T04:41:13;99759.44;;;13.78;60.30
68656;BME280;55638;51.122;13.606;2023-09-12T04:42:48;99763.16;;;13.77;60.03
68656;BME280;55638;51.122;13.606;2023-09-12T04:44:20;99763.00;;;13.78;60.00
68656;BME280;55638;51.122;13.606;2023-09-12T04:45:52;99767.44;;;13.79;60.01
68656;BME280;55638;51.122;13.606;2023-09-12T04:47:24;99763.00;;;13.78;60.06
68656;BME280;55638;51.122;13.606;2023-09-12T04:48:56;99766.59;;;13.79;60.13
68656;BME280;55638;51.122;13.606;2023-09-12T04:50:28;99770.97;;;13.80;60.19
68656;BME280;55638;51.122;13.606;2023-09-12T04:52:00;99761.00;;;13.80;60.05
68656;BME280;55638;51.122;13.606;2023-09-12T04:53:32;99761.84;;;13.81;60.24
68656;BME280;55638;51.122;13.606;2023-09-12T04:55:08;99763.56;;;13.82;60.38
68656;BME280;55638;51.122;13.606;2023-09-12T04:56:40;99764.41;;;13.82;59.95
68656;BME280;55638;51.122;13.606;2023-09-12T04:58:12;99761.50;;;13.84;60.05
68656;BME280;55638;51.122;13.606;2023-09-12T04:59:44;99759.81;;;13.83;59.92
68656;BME280;55638;51.122;13.606;2023-09-12T05:01:16;99755.09;;;13.85;60.32
68656;BME280;55638;51.122;13.606;2023-09-12T05:02:49;99758.66;;;13.85;60.17
68656;BME280;55638;51.122;13.606;2023-09-12T05:04:21;99759.50;;;13.86;60.22
68656;BME280;55638;51.122;13.606;2023-09-12T05:05:53;99757.66;;;13.86;60.16
68656;BME280;55638;51.122;13.606;2023-09-12T05:07:25;99762.88;;;13.88;60.18
68656;BME280;55638;51.122;13.606;2023-09-12T05:08:57;99757.47;;;13.88;60.33
68656;BME280;55638;51.122;13.606;2023-09-12T05:10:30;99754.63;;;13.89;60.46
68656;BME280;55638;51.122;13.606;2023-09-12T05:12:02;99746.31;;;13.91;60.14
68656;BME280;55638;51.122;13.606;2023-09-12T05:13:34;99754.28;;;13.92;60.46
68656;BME280;55638;51.122;13.606;2023-09-12T05:15:06;99755.16;;;13.93;60.33
68656;BME280;55638;51.122;13.606;2023-09-12T05:16:38;99754.13;;;13.94;60.38
68656;BME280;55638;51.122;13.606;2023-09-12T05:18:10;99764.63;;;13.97;60.61
68656;BME280;55638;51.122;13.606;2023-09-12T05:19:42;99758.22;;;13.98;60.61
68656;BME280;55638;51.122;13.606;2023-09-12T05:21:14;99762.31;;;14.02;60.66
68656;BME280;55638;51.122;13.606;2023-09-12T05:22:46;99758.59;;;14.03;60.41
68656;BME280;55638;51.122;13.606;2023-09-12T05:24:18;99762.13;;;14.04;60.39
68656;BME280;55638;51.122;13.606;2023-09-12T05:25:50;99768.09;;;14.07;60.45
68656;BME280;55638;51.122;13.606;2023-09-12T05:27:22;99769.81;;;14.08;60.51
68656;BME280;55638;51.122;13.606;2023-09-12T05:28:54;99769.47;;;14.11;60.69
68656;BME280;55638;51.122;13.606;2023-09-12T05:30:26;99769.31;;;14.13;60.49
68656;BME280;55638;51.122;13.606;2023-09-12T05:31:58;99768.13;;;14.15;60.53
68656;BME280;55638;51.122;13.606;2023-09-12T05:33:30;99764.25;;;14.18;60.58
68656;BME280;55638;51.122;13.606;2023-09-12T05:35:04;99771.22;;;14.21;60.68
68656;BME280;55638;51.122;13.606;2023-09-12T05:36:51;99773.59;;;14.24;60.35
68656;BME280;55638;51.122;13.606;2023-09-12T05:38:23;99769.69;;;14.26;60.44
68656;BME280;55638;51.122;13.606;2023-09-12T05:39:55;99777.69;;;14.28;60.75
68656;BME280;55638;51.122;13.606;2023-09-12T05:41:27;99777.38;;;14.31;60.50
68656;BME280;55638;51.122;13.606;2023-09-12T05:42:59;99777.03;;;14.34;60.42
68656;BME280;55638;51.122;13.606;2023-09-12T05:44:31;99773.13;;;14.36;60.57
68656;BME280;55638;51.122;13.606;2023-09-12T05:46:03;99774.34;;;14.42;60.57
68656;BME280;55638;51.122;13.606;2023-09-12T05:47:35;99777.75;;;14.44;60.49
68656;BME280;55638;51.122;13.606;2023-09-12T05:49:07;99780.16;;;14.47;60.63
68656;BME280;55638;51.122;13.606;2023-09-12T05:50:39;99783.38;;;14.51;60.99
68656;BME280;55638;51.122;13.606;2023-09-12T05:52:11;99783.06;;;14.54;60.91
68656;BME280;55638;51.122;13.606;2023-09-12T05:53:43;99787.97;;;14.58;60.81
68656;BME280;55638;51.122;13.606;2023-09-12T05:55:15;99784.78;;;14.63;61.02
68656;BME280;55638;51.122;13.606;2023-09-12T05:56:48;99779.06;;;14.66;61.13
68656;BME280;55638;51.122;13.606;2023-09-12T05:58:20;99788.38;;;14.72;61.12
68656;BME280;55638;51.122;13.606;2023-09-12T05:59:52;99785.84;;;14.78;60.88
68656;BME280;55638;51.122;13.606;2023-09-12T06:01:24;99790.81;;;14.83;61.16
68656;BME280;55638;51.122;13.606;2023-09-12T06:02:56;99791.13;;;14.88;60.91
68656;BME280;55638;51.122;13.606;2023-09-12T06:04:28;99794.03;;;14.95;61.19
68656;BME280;55638;51.122;13.606;2023-09-12T06:06:00;99796.28;;;14.99;61.23
68656;BME280;55638;51.122;13.606;2023-09-12T06:07:32;99797.28;;;15.06;61.16
68656;BME280;55638;51.122;13.606;2023-09-12T06:09:04;99802.06;;;15.13;61.05
68656;BME280;55638;51.122;13.606;2023-09-12T06:10:37;99808.50;;;15.20;60.87
68656;BME280;55638;51.122;13.606;2023-09-12T06:12:09;99800.72;;;15.25;60.70
68656;BME280;55638;51.122;13.606;2023-09-12T06:13:41;99801.75;;;15.32;60.82
68656;BME280;55638;51.122;13.606;2023-09-12T06:15:13;99804.63;;;15.39;60.78
68656;BME280;55638;51.122;13.606;2023-09-12T06:16:45;99803.13;;;15.44;60.86
68656;BME280;55638;51.122;13.606;2023-09-12T06:18:17;99811.28;;;15.52;60.73
68656;BME280;55638;51.122;13.606;2023-09-12T06:19:50;99806.19;;;15.58;60.74
68656;BME280;55638;51.122;13.606;2023-09-12T06:21:22;99808.25;;;15.64;60.65
68656;BME280;55638;51.122;13.606;2023-09-12T06:22:54;99813.84;;;15.70;60.51
68656;BME280;55638;51.122;13.606;2023-09-12T06:24:26;99816.72;;;15.77;60.69
68656;BME280;55638;51.122;13.606;2023-09-12T06:25:58;99815.00;;;15.84;60.35
68656;BME280;55638;51.122;13.606;2023-09-12T06:27:30;99809.03;;;15.89;60.43
68656;BME280;55638;51.122;13.606;2023-09-12T06:29:03;99814.63;;;15.95;60.06
68656;BME280;55638;51.122;13.606;2023-09-12T06:30:36;99823.97;;;16.01;60.32
68656;BME280;55638;51.122;13.606;2023-09-12T06:32:08;99814.09;;;16.08;60.15
68656;BME280;55638;51.122;13.606;2023-09-12T06:33:40;99816.13;;;16.14;59.96
68656;BME280;55638;51.122;13.606;2023-09-12T06:35:12;99814.59;;;16.20;59.80
68656;BME280;55638;51.122;13.606;2023-09-12T06:36:43;99817.47;;;16.27;60.39
68656;BME280;55638;51.122;13.606;2023-09-12T06:38:16;99817.63;;;16.33;60.10
68656;BME280;55638;51.122;13.606;2023-09-12T06:39:49;99817.78;;;16.40;60.17
68656;BME280;55638;51.122;13.606;2023-09-12T06:41:22;99815.22;;;16.46;60.37
68656;BME280;55638;51.122;13.606;2023-09-12T06:42:54;99816.22;;;16.54;60.23
68656;BME280;55638;51.122;13.606;2023-09-12T06:44:26;99825.34;;;16.61;60.36
68656;BME280;55638;51.122;13.606;2023-09-12T06:45:58;99810.88;;;16.68;60.42
68656;BME280;55638;51.122;13.606;2023-09-12T06:47:29;99819.84;;;16.77;60.19
68656;BME280;55638;51.122;13.606;2023-09-12T06:49:02;99817.09;;;16.85;60.04
68656;BME280;55638;51.122;13.606;2023-09-12T06:50:35;99818.06;;;16.92;60.25
68656;BME280;55638;51.122;13.606;2023-09-12T06:52:09;99816.16;;;17.01;59.83
68656;BME280;55638;51.122;13.606;2023-09-12T06:53:42;99817.97;;;17.09;60.07
68656;BME280;55638;51.122;13.606;2023-09-12T06:55:14;99817.13;;;17.16;59.83
68656;BME280;55638;51.122;13.606;2023-09-12T06:56:46;99816.00;;;17.26;60.10
68656;BME280;55638;51.122;13.606;2023-09-12T06:58:18;99817.84;;;17.33;59.83
68656;BME280;55638;51.122;13.606;2023-09-12T06:59:50;99809.59;;;17.42;59.61
68656;BME280;55638;51.122;13.606;2023-09-12T07:01:22;99819.41;;;17.51;59.25
68656;BME280;55638;51.122;13.606;2023-09-12T07:02:54;99814.06;;;17.57;59.16
68656;BME280;55638;51.122;13.606;2023-09-12T07:04:26;99822.00;;;17.67;59.32
68656;BME280;55638;51.122;13.606;2023-09-12T07:05:58;99819.22;;;17.75;58.99
68656;BME280;55638;51.122;13.606;2023-09-12T07:07:31;99819.13;;;17.83;58.89
68656;BME280;55638;51.122;13.606;2023-09-12T07:09:04;99813.59;;;17.92;58.70
68656;BME280;55638;51.122;13.606;2023-09-12T07:10:36;99811.66;;;18.00;58.42
68656;BME280;55638;51.122;13.606;2023-09-12T07:12:08;99816.00;;;18.09;58.30
68656;BME280;55638;51.122;13.606;2023-09-12T07:13:40;99824.94;;;18.18;58.41
68656;BME280;55638;51.122;13.606;2023-09-12T07:15:14;99822.13;;;18.26;58.43
68656;BME280;55638;51.122;13.606;2023-09-12T07:16:47;99824.78;;;18.35;58.06
68656;BME280;55638;51.122;13.606;2023-09-12T07:18:18;99822.81;;;18.43;57.74
68656;BME280;55638;51.122;13.606;2023-09-12T07:19:52;99825.41;;;18.51;57.76
68656;BME280;55638;51.122;13.606;2023-09-12T07:21:24;99822.59;;;18.60;57.93
68656;BME280;55638;51.122;13.606;2023-09-12T07:22:56;99822.69;;;18.66;57.59
68656;BME280;55638;51.122;13.606;2023-09-12T07:24:28;99828.91;;;18.75;57.37
68656;BME280;55638;51.122;13.606;2023-09-12T07:26:00;99819.56;;;18.84;57.08
68656;BME280;55638;51.122;13.606;2023-09-12T07:27:32;99823.88;;;18.93;57.15
68656;BME280;55638;51.122;13.606;2023-09-12T07:29:04;99818.13;;;19.03;57.14
68656;BME280;55638;51.122;13.606;2023-09-12T07:30:37;99818.84;;;19.12;56.73
68656;BME280;55638;51.122;13.606;2023-09-12T07:32:09;99821.28;;;19.21;56.69
68656;BME280;55638;51.122;13.606;2023-09-12T07:33:41;99820.09;;;19.31;56.28
68656;BME280;55638;51.122;13.606;2023-09-12T07:35:14;99823.41;;;19.41;56.33
68656;BME280;55638;51.122;13.606;2023-09-12T07:36:46;99815.06;;;19.49;56.32
68656;BME280;55638;51.122;13.606;2023-09-12T07:38:20;99811.81;;;19.60;56.23
68656;BME280;55638;51.122;13.606;2023-09-12T07:39:52;99810.59;;;19.69;56.07
68656;BME280;55638;51.122;13.606;2023-09-12T07:41:24;99812.38;;;19.77;55.61
68656;BME280;55638;51.122;13.606;2023-09-12T07:42:56;99816.44;;;19.88;55.56
68656;BME280;55638;51.122;13.606;2023-09-12T07:44:28;99810.84;;;19.96;55.63
68656;BME280;55638;51.122;13.606;2023-09-12T07:46:01;99816.81;;;20.06;55.26
68656;BME280;55638;51.122;13.606;2023-09-12T07:47:33;99823.84;;;20.15;54.92
68656;BME280;55638;51.122;13.606;2023-09-12T07:49:05;99811.69;;;20.25;54.50
68656;BME280;55638;51.122;13.606;2023-09-12T07:50:37;99825.88;;;20.35;54.62
68656;BME280;55638;51.122;13.606;2023-09-12T07:52:10;99817.47;;;20.43;54.53
68656;BME280;55638;51.122;13.606;2023-09-12T07:53:42;99820.69;;;20.53;54.65
68656;BME280;55638;51.122;13.606;2023-09-12T07:55:14;99822.22;;;20.62;54.07
68656;BME280;55638;51.122;13.606;2023-09-12T07:56:46;99827.31;;;20.72;53.98
68656;BME280;55638;51.122;13.606;2023-09-12T07:58:18;99829.72;;;20.82;53.91
68656;BME280;55638;51.122;13.606;2023-09-12T07:59:50;99826.38;;;20.93;53.75
68656;BME280;55638;51.122;13.606;2023-09-12T08:01:22;99830.44;;;21.04;53.31
68656;BME280;55638;51.122;13.606;2023-09-12T08:02:54;99831.06;;;21.13;53.24
68656;BME280;55638;51.122;13.606;2023-09-12T08:04:26;99822.47;;;21.22;53.35
68656;BME280;55638;51.122;13.606;2023-09-12T08:05:58;99821.03;;;21.33;52.80